sensor_id;sensor_type;location;lat;lon;timestamp;temperature;humidity
16128;DHT22;8168;49.036;7.690;2022-07-29T00:01:23;18.90;92.50
16128;DHT22;8168;49.036;7.690;2022-07-29T00:03:54;18.80;92.50
16128;DHT22;8168;49.036;7.690;2022-07-29T00:06:25;18.80;92.50
16128;DHT22;8168;49.036;7.690;2022-07-29T00:08:55;18.70;92.60
16128;DHT22;8168;49.036;7.690;2022-07-29T00:11:26;18.70;92.70
16128;DHT22;8168;49.036;7.690;2022-07-29T00:13:57;18.60;92.60
16128;DHT22;8168;49.036;7.690;2022-07-29T00:16:27;18.60;92.60
16128;DHT22;8168;49.036;7.690;2022-07-29T00:18:58;18.60;92.50
16128;DHT22;8168;49.036;7.690;2022-07-29T00:21:29;18.50;92.60
16128;DHT22;8168;49.036;7.690;2022-07-29T00:23:59;18.50;92.70
16128;DHT22;8168;49.036;7.690;2022-07-29T00:26:30;18.50;92.70
16128;DHT22;8168;49.036;7.690;2022-07-29T00:29:03;18.50;92.80
16128;DHT22;8168;49.036;7.690;2022-07-29T00:31:34;18.50;92.90
16128;DHT22;8168;49.036;7.690;2022-07-29T00:34:05;18.40;92.90
16128;DHT22;8168;49.036;7.690;2022-07-29T00:36:56;18.40;93.10
16128;DHT22;8168;49.036;7.690;2022-07-29T00:39:27;18.40;93.10
16128;DHT22;8168;49.036;7.690;2022-07-29T00:41:57;18.30;93.10
16128;DHT22;8168;49.036;7.690;2022-07-29T00:44:28;18.30;93.10
16128;DHT22;8168;49.036;7.690;2022-07-29T00:46:58;18.20;93.00
16128;DHT22;8168;49.036;7.690;2022-07-29T00:49:29;18.20;93.10
16128;DHT22;8168;49.036;7.690;2022-07-29T00:52:04;18.10;93.20
16128;DHT22;8168;49.036;7.690;2022-07-29T00:54:35;18.10;93.20
16128;DHT22;8168;49.036;7.690;2022-07-29T00:57:07;18.00;93.10
16128;DHT22;8168;49.036;7.690;2022-07-29T00:59:38;18.00;93.20
16128;DHT22;8168;49.036;7.690;2022-07-29T01:02:09;18.00;93.30
16128;DHT22;8168;49.036;7.690;2022-07-29T01:04:40;17.90;93.30
16128;DHT22;8168;49.036;7.690;2022-07-29T01:07:11;17.90;93.30
16128;DHT22;8168;49.036;7.690;2022-07-29T01:09:42;17.80;93.40
16128;DHT22;8168;49.036;7.690;2022-07-29T01:12:17;17.80;93.50
16128;DHT22;8168;49.036;7.690;2022-07-29T01:14:49;17.70;93.60
16128;DHT22;8168;49.036;7.690;2022-07-29T01:17:33;17.70;93.70
16128;DHT22;8168;49.036;7.690;2022-07-29T01:20:26;17.70;93.70
16128;DHT22;8168;49.036;7.690;2022-07-29T01:31:27;17.50;93.90
16128;DHT22;8168;49.036;7.690;2022-07-29T01:34:04;17.50;94.00
16128;DHT22;8168;49.036;7.690;2022-07-29T01:36:55;17.40;94.10
16128;DHT22;8168;49.036;7.690;2022-07-29T01:39:30;17.40;94.10
16128;DHT22;8168;49.036;7.690;2022-07-29T01:42:23;17.40;94.10
16128;DHT22;8168;49.036;7.690;2022-07-29T01:45:01;17.30;94.30
16128;DHT22;8168;49.036;7.690;2022-07-29T01:47:39;17.30;94.30
16128;DHT22;8168;49.036;7.690;2022-07-29T01:50:14;17.20;94.30
16128;DHT22;8168;49.036;7.690;2022-07-29T01:53:08;17.20;94.50
16128;DHT22;8168;49.036;7.690;2022-07-29T01:55:43;17.20;94.60
16128;DHT22;8168;49.036;7.690;2022-07-29T01:58:17;17.10;94.50
16128;DHT22;8168;49.036;7.690;2022-07-29T02:00:49;17.10;94.50
16128;DHT22;8168;49.036;7.690;2022-07-29T02:03:21;17.00;94.50
16128;DHT22;8168;49.036;7.690;2022-07-29T02:05:53;17.00;94.60
16128;DHT22;8168;49.036;7.690;2022-07-29T02:08:26;16.90;94.80
16128;DHT22;8168;49.036;7.690;2022-07-29T02:11:00;16.90;94.90
16128;DHT22;8168;49.036;7.690;2022-07-29T02:13:32;16.90;95.00
16128;DHT22;8168;49.036;7.690;2022-07-29T02:16:06;16.80;94.90
16128;DHT22;8168;49.036;7.690;2022-07-29T02:18:41;16.80;94.80
16128;DHT22;8168;49.036;7.690;2022-07-29T02:21:21;16.80;94.80
16128;DHT22;8168;49.036;7.690;2022-07-29T02:23:54;16.70;95.00
16128;DHT22;8168;49.036;7.690;2022-07-29T02:26:27;16.70;95.10
16128;DHT22;8168;49.036;7.690;2022-07-29T02:28:59;16.70;95.40
16128;DHT22;8168;49.036;7.690;2022-07-29T02:31:33;16.60;95.70
16128;DHT22;8168;49.036;7.690;2022-07-29T02:34:07;16.60;95.40
16128;DHT22;8168;49.036;7.690;2022-07-29T02:36:39;16.60;95.50
16128;DHT22;8168;49.036;7.690;2022-07-29T02:39:12;16.60;95.50
16128;DHT22;8168;49.036;7.690;2022-07-29T02:41:52;16.60;95.50
16128;DHT22;8168;49.036;7.690;2022-07-29T02:44:25;16.60;95.50
16128;DHT22;8168;49.036;7.690;2022-07-29T02:47:11;16.50;95.50
16128;DHT22;8168;49.036;7.690;2022-07-29T02:50:04;16.50;95.50
16128;DHT22;8168;49.036;7.690;2022-07-29T02:52:43;16.50;95.50
16128;DHT22;8168;49.036;7.690;2022-07-29T02:55:25;16.50;95.50
16128;DHT22;8168;49.036;7.690;2022-07-29T03:00:46;16.40;95.70
16128;DHT22;8168;49.036;7.690;2022-07-29T03:03:19;16.30;95.80
16128;DHT22;8168;49.036;7.690;2022-07-29T03:05:56;16.30;95.70
16128;DHT22;8168;49.036;7.690;2022-07-29T03:08:28;16.30;95.80
16128;DHT22;8168;49.036;7.690;2022-07-29T03:11:00;16.20;95.80
16128;DHT22;8168;49.036;7.690;2022-07-29T03:13:31;16.20;96.00
16128;DHT22;8168;49.036;7.690;2022-07-29T03:16:03;16.20;96.10
16128;DHT22;8168;49.036;7.690;2022-07-29T03:18:35;16.20;96.00
16128;DHT22;8168;49.036;7.690;2022-07-29T03:21:06;16.10;96.00
16128;DHT22;8168;49.036;7.690;2022-07-29T03:23:43;17.10;96.50
16128;DHT22;8168;49.036;7.690;2022-07-29T03:26:15;16.10;96.20
16128;DHT22;8168;49.036;7.690;2022-07-29T03:28:46;16.00;96.20
16128;DHT22;8168;49.036;7.690;2022-07-29T03:31:17;16.00;96.30
16128;DHT22;8168;49.036;7.690;2022-07-29T03:33:47;16.00;96.40
16128;DHT22;8168;49.036;7.690;2022-07-29T03:36:18;16.00;96.50
16128;DHT22;8168;49.036;7.690;2022-07-29T03:38:49;16.00;96.50
16128;DHT22;8168;49.036;7.690;2022-07-29T03:41:21;16.00;96.60
16128;DHT22;8168;49.036;7.690;2022-07-29T03:43:53;15.90;96.70
16128;DHT22;8168;49.036;7.690;2022-07-29T03:46:26;15.90;96.80
16128;DHT22;8168;49.036;7.690;2022-07-29T03:49:01;15.90;96.90
16128;DHT22;8168;49.036;7.690;2022-07-29T03:51:33;15.90;96.90
16128;DHT22;8168;49.036;7.690;2022-07-29T03:54:04;15.80;96.80
16128;DHT22;8168;49.036;7.690;2022-07-29T03:56:38;15.80;96.70
16128;DHT22;8168;49.036;7.690;2022-07-29T03:59:10;15.70;96.70
16128;DHT22;8168;49.036;7.690;2022-07-29T04:01:42;15.70;96.80
16128;DHT22;8168;49.036;7.690;2022-07-29T04:04:13;15.70;96.90
16128;DHT22;8168;49.036;7.690;2022-07-29T04:06:46;15.60;97.00
16128;DHT22;8168;49.036;7.690;2022-07-29T04:09:16;15.60;97.20
16128;DHT22;8168;49.036;7.690;2022-07-29T04:11:47;15.60;97.30
16128;DHT22;8168;49.036;7.690;2022-07-29T04:14:18;15.60;97.30
16128;DHT22;8168;49.036;7.690;2022-07-29T04:16:48;15.60;97.30
16128;DHT22;8168;49.036;7.690;2022-07-29T04:19:19;15.50;97.30
16128;DHT22;8168;49.036;7.690;2022-07-29T04:21:50;15.50;97.30
16128;DHT22;8168;49.036;7.690;2022-07-29T04:24:20;15.50;97.40
16128;DHT22;8168;49.036;7.690;2022-07-29T04:26:51;15.50;97.50
16128;DHT22;8168;49.036;7.690;2022-07-29T04:29:21;15.50;97.60
16128;DHT22;8168;49.036;7.690;2022-07-29T04:31:52;15.50;97.80
16128;DHT22;8168;49.036;7.690;2022-07-29T04:34:23;15.50;97.90
16128;DHT22;8168;49.036;7.690;2022-07-29T04:36:53;15.40;98.00
16128;DHT22;8168;49.036;7.690;2022-07-29T04:39:24;15.50;98.10
16128;DHT22;8168;49.036;7.690;2022-07-29T04:41:56;15.50;98.10
16128;DHT22;8168;49.036;7.690;2022-07-29T04:44:26;15.50;98.20
16128;DHT22;8168;49.036;7.690;2022-07-29T04:46:58;15.50;98.20
16128;DHT22;8168;49.036;7.690;2022-07-29T04:49:28;15.50;98.30
16128;DHT22;8168;49.036;7.690;2022-07-29T04:51:59;15.50;98.40
16128;DHT22;8168;49.036;7.690;2022-07-29T04:54:29;15.50;98.40
16128;DHT22;8168;49.036;7.690;2022-07-29T04:57:00;15.50;98.50
16128;DHT22;8168;49.036;7.690;2022-07-29T04:59:31;15.60;98.60
16128;DHT22;8168;49.036;7.690;2022-07-29T05:02:02;15.60;99.00
16128;DHT22;8168;49.036;7.690;2022-07-29T05:04:32;15.60;98.80
16128;DHT22;8168;49.036;7.690;2022-07-29T05:07:03;17.10;99.60
16128;DHT22;8168;49.036;7.690;2022-07-29T05:09:33;15.70;99.00
16128;DHT22;8168;49.036;7.690;2022-07-29T05:12:04;15.70;99.10
16128;DHT22;8168;49.036;7.690;2022-07-29T05:14:35;15.70;99.20
16128;DHT22;8168;49.036;7.690;2022-07-29T05:17:06;15.80;99.40
16128;DHT22;8168;49.036;7.690;2022-07-29T05:19:36;15.80;99.50
16128;DHT22;8168;49.036;7.690;2022-07-29T05:22:07;15.90;99.50
16128;DHT22;8168;49.036;7.690;2022-07-29T05:24:37;15.90;99.50
16128;DHT22;8168;49.036;7.690;2022-07-29T05:27:08;15.90;99.50
16128;DHT22;8168;49.036;7.690;2022-07-29T05:29:39;16.00;99.70
16128;DHT22;8168;49.036;7.690;2022-07-29T05:32:10;16.00;99.90
16128;DHT22;8168;49.036;7.690;2022-07-29T05:34:41;16.10;99.90
16128;DHT22;8168;49.036;7.690;2022-07-29T05:37:12;16.20;99.90
16128;DHT22;8168;49.036;7.690;2022-07-29T05:39:43;16.30;99.90
16128;DHT22;8168;49.036;7.690;2022-07-29T05:42:14;16.30;99.90
16128;DHT22;8168;49.036;7.690;2022-07-29T05:44:44;16.40;99.90
16128;DHT22;8168;49.036;7.690;2022-07-29T05:47:15;16.40;99.90
16128;DHT22;8168;49.036;7.690;2022-07-29T05:49:46;16.40;99.90
16128;DHT22;8168;49.036;7.690;2022-07-29T05:52:17;16.60;99.90
16128;DHT22;8168;49.036;7.690;2022-07-29T05:54:47;16.60;99.90
16128;DHT22;8168;49.036;7.690;2022-07-29T05:57:23;16.70;99.90
16128;DHT22;8168;49.036;7.690;2022-07-29T05:59:54;16.80;99.90
16128;DHT22;8168;49.036;7.690;2022-07-29T06:02:24;16.90;99.90
16128;DHT22;8168;49.036;7.690;2022-07-29T06:04:55;17.00;99.90
16128;DHT22;8168;49.036;7.690;2022-07-29T06:07:25;17.00;99.90
16128;DHT22;8168;49.036;7.690;2022-07-29T06:09:56;17.10;99.90
16128;DHT22;8168;49.036;7.690;2022-07-29T06:12:27;17.20;99.90
16128;DHT22;8168;49.036;7.690;2022-07-29T06:14:57;17.20;99.90
16128;DHT22;8168;49.036;7.690;2022-07-29T06:17:28;17.30;99.90
16128;DHT22;8168;49.036;7.690;2022-07-29T06:19:58;17.40;99.90
16128;DHT22;8168;49.036;7.690;2022-07-29T06:22:29;17.50;99.90
16128;DHT22;8168;49.036;7.690;2022-07-29T06:25:01;17.50;99.90
16128;DHT22;8168;49.036;7.690;2022-07-29T06:27:32;17.60;99.90
16128;DHT22;8168;49.036;7.690;2022-07-29T06:30:03;17.70;99.90
16128;DHT22;8168;49.036;7.690;2022-07-29T06:32:36;17.70;99.90
16128;DHT22;8168;49.036;7.690;2022-07-29T06:35:07;17.80;99.90
16128;DHT22;8168;49.036;7.690;2022-07-29T06:37:38;17.80;99.90
16128;DHT22;8168;49.036;7.690;2022-07-29T06:40:09;17.90;99.90
16128;DHT22;8168;49.036;7.690;2022-07-29T06:42:59;17.90;99.90
16128;DHT22;8168;49.036;7.690;2022-07-29T06:45:29;18.00;99.90
16128;DHT22;8168;49.036;7.690;2022-07-29T06:48:00;18.10;99.90
16128;DHT22;8168;49.036;7.690;2022-07-29T06:50:31;18.20;99.90
16128;DHT22;8168;49.036;7.690;2022-07-29T06:53:02;18.30;99.90
16128;DHT22;8168;49.036;7.690;2022-07-29T06:55:33;18.40;99.90
16128;DHT22;8168;49.036;7.690;2022-07-29T06:58:03;18.50;99.90
16128;DHT22;8168;49.036;7.690;2022-07-29T07:00:34;18.60;99.90
16128;DHT22;8168;49.036;7.690;2022-07-29T07:03:05;18.80;99.90
16128;DHT22;8168;49.036;7.690;2022-07-29T07:05:36;18.90;99.90
16128;DHT22;8168;49.036;7.690;2022-07-29T07:08:06;19.00;99.90
16128;DHT22;8168;49.036;7.690;2022-07-29T07:10:38;19.20;99.40
16128;DHT22;8168;49.036;7.690;2022-07-29T07:13:09;19.30;98.80
16128;DHT22;8168;49.036;7.690;2022-07-29T07:15:40;19.50;98.20
16128;DHT22;8168;49.036;7.690;2022-07-29T07:18:11;19.70;97.40
16128;DHT22;8168;49.036;7.690;2022-07-29T07:20:41;19.70;97.20
16128;DHT22;8168;49.036;7.690;2022-07-29T07:23:12;19.90;96.70
16128;DHT22;8168;49.036;7.690;2022-07-29T07:25:43;20.00;96.70
16128;DHT22;8168;49.036;7.690;2022-07-29T07:28:14;20.10;96.60
16128;DHT22;8168;49.036;7.690;2022-07-29T07:30:45;20.20;96.30
16128;DHT22;8168;49.036;7.690;2022-07-29T07:33:16;20.40;95.80
16128;DHT22;8168;49.036;7.690;2022-07-29T07:35:47;20.50;95.40
16128;DHT22;8168;49.036;7.690;2022-07-29T07:38:17;20.70;95.10
16128;DHT22;8168;49.036;7.690;2022-07-29T07:40:48;20.80;94.80
16128;DHT22;8168;49.036;7.690;2022-07-29T07:43:19;20.90;94.70
16128;DHT22;8168;49.036;7.690;2022-07-29T07:45:49;21.00;93.80
16128;DHT22;8168;49.036;7.690;2022-07-29T07:48:20;21.10;93.60
16128;DHT22;8168;49.036;7.690;2022-07-29T07:50:50;21.20;93.20
16128;DHT22;8168;49.036;7.690;2022-07-29T07:53:22;21.20;92.70
16128;DHT22;8168;49.036;7.690;2022-07-29T07:55:52;21.20;92.60
16128;DHT22;8168;49.036;7.690;2022-07-29T07:58:23;21.20;92.60
16128;DHT22;8168;49.036;7.690;2022-07-29T08:00:53;21.20;92.90
16128;DHT22;8168;49.036;7.690;2022-07-29T08:03:24;21.20;92.90
16128;DHT22;8168;49.036;7.690;2022-07-29T08:05:55;21.30;92.90
16128;DHT22;8168;49.036;7.690;2022-07-29T08:08:26;21.50;92.90
16128;DHT22;8168;49.036;7.690;2022-07-29T08:10:56;21.60;92.60
16128;DHT22;8168;49.036;7.690;2022-07-29T08:13:27;21.60;92.40
16128;DHT22;8168;49.036;7.690;2022-07-29T08:15:59;21.60;92.30
16128;DHT22;8168;49.036;7.690;2022-07-29T08:18:31;21.70;92.40
16128;DHT22;8168;49.036;7.690;2022-07-29T08:21:02;21.90;92.70
16128;DHT22;8168;49.036;7.690;2022-07-29T08:23:33;21.90;92.60
16128;DHT22;8168;49.036;7.690;2022-07-29T08:26:15;22.00;92.00
16128;DHT22;8168;49.036;7.690;2022-07-29T08:28:46;22.10;91.80
16128;DHT22;8168;49.036;7.690;2022-07-29T08:31:19;22.10;91.50
16128;DHT22;8168;49.036;7.690;2022-07-29T08:33:50;22.10;91.60
16128;DHT22;8168;49.036;7.690;2022-07-29T08:36:21;22.10;91.80
16128;DHT22;8168;49.036;7.690;2022-07-29T08:38:52;22.20;92.10
16128;DHT22;8168;49.036;7.690;2022-07-29T08:41:23;22.20;91.90
16128;DHT22;8168;49.036;7.690;2022-07-29T08:43:54;22.30;91.60
16128;DHT22;8168;49.036;7.690;2022-07-29T08:46:25;22.40;91.30
16128;DHT22;8168;49.036;7.690;2022-07-29T08:48:56;22.50;91.00
16128;DHT22;8168;49.036;7.690;2022-07-29T08:51:27;22.70;90.60
16128;DHT22;8168;49.036;7.690;2022-07-29T08:53:58;22.70;90.60
16128;DHT22;8168;49.036;7.690;2022-07-29T08:56:30;22.80;90.80
16128;DHT22;8168;49.036;7.690;2022-07-29T08:59:03;22.90;90.70
16128;DHT22;8168;49.036;7.690;2022-07-29T09:01:38;22.90;90.70
16128;DHT22;8168;49.036;7.690;2022-07-29T09:04:11;22.90;90.40
16128;DHT22;8168;49.036;7.690;2022-07-29T09:06:45;23.00;90.40
16128;DHT22;8168;49.036;7.690;2022-07-29T09:09:16;22.30;89.40
16128;DHT22;8168;49.036;7.690;2022-07-29T09:11:47;23.10;89.30
16128;DHT22;8168;49.036;7.690;2022-07-29T09:14:19;23.10;89.00
16128;DHT22;8168;49.036;7.690;2022-07-29T09:16:55;23.20;89.10
16128;DHT22;8168;49.036;7.690;2022-07-29T09:19:28;23.30;89.40
16128;DHT22;8168;49.036;7.690;2022-07-29T09:22:01;23.20;89.10
16128;DHT22;8168;49.036;7.690;2022-07-29T09:27:25;23.40;88.50
16128;DHT22;8168;49.036;7.690;2022-07-29T09:32:32;23.60;87.50
16128;DHT22;8168;49.036;7.690;2022-07-29T09:35:25;23.70;86.20
16128;DHT22;8168;49.036;7.690;2022-07-29T09:37:56;23.90;85.90
16128;DHT22;8168;49.036;7.690;2022-07-29T09:40:28;24.10;85.30
16128;DHT22;8168;49.036;7.690;2022-07-29T09:43:10;24.30;85.50
16128;DHT22;8168;49.036;7.690;2022-07-29T09:45:40;24.50;85.00
16128;DHT22;8168;49.036;7.690;2022-07-29T09:48:20;24.60;84.40
16128;DHT22;8168;49.036;7.690;2022-07-29T09:50:51;24.80;83.80
16128;DHT22;8168;49.036;7.690;2022-07-29T09:53:36;24.90;85.00
16128;DHT22;8168;49.036;7.690;2022-07-29T09:56:07;25.00;84.70
16128;DHT22;8168;49.036;7.690;2022-07-29T09:58:40;25.10;82.80
16128;DHT22;8168;49.036;7.690;2022-07-29T10:01:12;25.20;81.00
16128;DHT22;8168;49.036;7.690;2022-07-29T10:03:52;25.30;79.90
16128;DHT22;8168;49.036;7.690;2022-07-29T10:06:23;25.40;78.60
16128;DHT22;8168;49.036;7.690;2022-07-29T10:08:54;25.40;79.30
16128;DHT22;8168;49.036;7.690;2022-07-29T10:11:24;25.50;80.70
16128;DHT22;8168;49.036;7.690;2022-07-29T10:13:55;25.40;81.30
16128;DHT22;8168;49.036;7.690;2022-07-29T10:16:26;25.50;80.70
16128;DHT22;8168;49.036;7.690;2022-07-29T10:19:02;25.50;80.40
16128;DHT22;8168;49.036;7.690;2022-07-29T10:21:33;25.60;77.10
16128;DHT22;8168;49.036;7.690;2022-07-29T10:24:05;25.80;75.70
16128;DHT22;8168;49.036;7.690;2022-07-29T10:26:36;25.90;74.40
16128;DHT22;8168;49.036;7.690;2022-07-29T10:29:11;26.20;69.10
16128;DHT22;8168;49.036;7.690;2022-07-29T10:37:17;26.50;66.50
16128;DHT22;8168;49.036;7.690;2022-07-29T10:40:28;26.50;66.70
16128;DHT22;8168;49.036;7.690;2022-07-29T10:43:28;26.50;66.10
16128;DHT22;8168;49.036;7.690;2022-07-29T10:46:00;26.70;64.90
16128;DHT22;8168;49.036;7.690;2022-07-29T10:48:31;26.80;64.80
16128;DHT22;8168;49.036;7.690;2022-07-29T10:51:03;26.90;62.20
16128;DHT22;8168;49.036;7.690;2022-07-29T10:53:51;27.00;63.10
16128;DHT22;8168;49.036;7.690;2022-07-29T10:56:27;27.10;61.30
16128;DHT22;8168;49.036;7.690;2022-07-29T11:01:51;27.10;61.50
16128;DHT22;8168;49.036;7.690;2022-07-29T11:07:33;26.90;61.40
16128;DHT22;8168;49.036;7.690;2022-07-29T11:15:20;26.50;63.20
16128;DHT22;8168;49.036;7.690;2022-07-29T11:20:40;26.50;63.90
16128;DHT22;8168;49.036;7.690;2022-07-29T11:23:18;26.60;65.60
16128;DHT22;8168;49.036;7.690;2022-07-29T11:31:39;26.50;65.10
16128;DHT22;8168;49.036;7.690;2022-07-29T11:34:19;26.50;63.80
16128;DHT22;8168;49.036;7.690;2022-07-29T11:39:45;26.50;64.10
16128;DHT22;8168;49.036;7.690;2022-07-29T11:45:06;26.30;63.60
16128;DHT22;8168;49.036;7.690;2022-07-29T11:47:56;26.20;64.00
16128;DHT22;8168;49.036;7.690;2022-07-29T11:50:33;26.20;64.10
16128;DHT22;8168;49.036;7.690;2022-07-29T11:53:11;26.30;63.50
16128;DHT22;8168;49.036;7.690;2022-07-29T11:55:42;26.30;62.80
16128;DHT22;8168;49.036;7.690;2022-07-29T11:58:13;26.30;64.00
16128;DHT22;8168;49.036;7.690;2022-07-29T12:00:46;26.30;64.30
16128;DHT22;8168;49.036;7.690;2022-07-29T12:03:26;26.40;63.30
16128;DHT22;8168;49.036;7.690;2022-07-29T12:05:57;26.50;61.70
16128;DHT22;8168;49.036;7.690;2022-07-29T12:08:28;26.60;62.70
16128;DHT22;8168;49.036;7.690;2022-07-29T12:10:59;26.60;63.50
16128;DHT22;8168;49.036;7.690;2022-07-29T12:13:38;26.60;60.70
16128;DHT22;8168;49.036;7.690;2022-07-29T12:16:09;26.60;61.00
16128;DHT22;8168;49.036;7.690;2022-07-29T12:18:40;26.80;61.40
16128;DHT22;8168;49.036;7.690;2022-07-29T12:21:10;27.00;60.50
16128;DHT22;8168;49.036;7.690;2022-07-29T12:23:55;27.20;59.00
16128;DHT22;8168;49.036;7.690;2022-07-29T12:26:26;27.30;59.20
16128;DHT22;8168;49.036;7.690;2022-07-29T12:28:57;27.40;57.50
16128;DHT22;8168;49.036;7.690;2022-07-29T12:31:27;27.50;57.30
16128;DHT22;8168;49.036;7.690;2022-07-29T12:33:58;27.60;57.90
16128;DHT22;8168;49.036;7.690;2022-07-29T12:36:28;27.40;57.90
16128;DHT22;8168;49.036;7.690;2022-07-29T12:38:59;27.50;57.10
16128;DHT22;8168;49.036;7.690;2022-07-29T12:41:30;27.50;57.10
16128;DHT22;8168;49.036;7.690;2022-07-29T12:44:01;27.50;57.50
16128;DHT22;8168;49.036;7.690;2022-07-29T12:46:32;27.50;56.30
16128;DHT22;8168;49.036;7.690;2022-07-29T12:49:03;27.60;56.00
16128;DHT22;8168;49.036;7.690;2022-07-29T12:51:36;27.50;56.50
16128;DHT22;8168;49.036;7.690;2022-07-29T12:54:12;27.50;56.30
16128;DHT22;8168;49.036;7.690;2022-07-29T12:56:44;27.60;56.70
16128;DHT22;8168;49.036;7.690;2022-07-29T12:59:17;27.50;55.60
16128;DHT22;8168;49.036;7.690;2022-07-29T13:01:50;27.30;54.70
16128;DHT22;8168;49.036;7.690;2022-07-29T13:04:32;27.30;55.40
16128;DHT22;8168;49.036;7.690;2022-07-29T13:07:07;27.20;54.10
16128;DHT22;8168;49.036;7.690;2022-07-29T13:09:43;27.20;55.80
16128;DHT22;8168;49.036;7.690;2022-07-29T13:12:14;27.20;54.60
16128;DHT22;8168;49.036;7.690;2022-07-29T13:14:46;27.30;54.90
16128;DHT22;8168;49.036;7.690;2022-07-29T13:17:19;27.40;54.90
16128;DHT22;8168;49.036;7.690;2022-07-29T13:20:07;27.40;53.90
16128;DHT22;8168;49.036;7.690;2022-07-29T13:22:42;27.40;53.50
16128;DHT22;8168;49.036;7.690;2022-07-29T13:25:30;27.40;53.40
16128;DHT22;8168;49.036;7.690;2022-07-29T13:28:02;27.40;53.30
16128;DHT22;8168;49.036;7.690;2022-07-29T13:30:33;27.60;53.70
16128;DHT22;8168;49.036;7.690;2022-07-29T13:33:03;27.80;53.80
16128;DHT22;8168;49.036;7.690;2022-07-29T13:35:34;27.90;53.60
16128;DHT22;8168;49.036;7.690;2022-07-29T13:38:05;28.00;54.50
16128;DHT22;8168;49.036;7.690;2022-07-29T13:40:35;28.00;53.20
16128;DHT22;8168;49.036;7.690;2022-07-29T13:43:09;27.90;52.80
16128;DHT22;8168;49.036;7.690;2022-07-29T13:45:40;27.90;53.30
16128;DHT22;8168;49.036;7.690;2022-07-29T13:48:10;28.00;53.60
16128;DHT22;8168;49.036;7.690;2022-07-29T13:50:41;28.10;52.10
16128;DHT22;8168;49.036;7.690;2022-07-29T13:53:12;28.10;51.20
16128;DHT22;8168;49.036;7.690;2022-07-29T13:55:43;28.00;51.50
16128;DHT22;8168;49.036;7.690;2022-07-29T13:58:14;28.00;51.30
16128;DHT22;8168;49.036;7.690;2022-07-29T14:00:45;28.00;51.40
16128;DHT22;8168;49.036;7.690;2022-07-29T14:03:17;28.00;51.80
16128;DHT22;8168;49.036;7.690;2022-07-29T14:05:47;28.10;54.20
16128;DHT22;8168;49.036;7.690;2022-07-29T14:08:18;28.20;52.30
16128;DHT22;8168;49.036;7.690;2022-07-29T14:10:49;27.10;50.90
16128;DHT22;8168;49.036;7.690;2022-07-29T14:13:19;28.20;50.60
16128;DHT22;8168;49.036;7.690;2022-07-29T14:15:50;28.10;50.90
16128;DHT22;8168;49.036;7.690;2022-07-29T14:18:20;28.20;50.10
16128;DHT22;8168;49.036;7.690;2022-07-29T14:20:51;28.10;50.60
16128;DHT22;8168;49.036;7.690;2022-07-29T14:23:22;28.20;50.90
16128;DHT22;8168;49.036;7.690;2022-07-29T14:25:52;28.20;50.20
16128;DHT22;8168;49.036;7.690;2022-07-29T14:28:23;28.30;50.70
16128;DHT22;8168;49.036;7.690;2022-07-29T14:30:54;28.50;49.00
16128;DHT22;8168;49.036;7.690;2022-07-29T14:33:24;28.40;48.80
16128;DHT22;8168;49.036;7.690;2022-07-29T14:35:55;28.40;48.50
16128;DHT22;8168;49.036;7.690;2022-07-29T14:38:26;28.40;47.80
16128;DHT22;8168;49.036;7.690;2022-07-29T14:40:56;28.40;48.60
16128;DHT22;8168;49.036;7.690;2022-07-29T14:43:27;28.40;47.50
16128;DHT22;8168;49.036;7.690;2022-07-29T14:45:57;28.50;47.00
16128;DHT22;8168;49.036;7.690;2022-07-29T14:48:28;28.50;46.30
16128;DHT22;8168;49.036;7.690;2022-07-29T14:50:58;28.50;44.50
16128;DHT22;8168;49.036;7.690;2022-07-29T14:53:29;28.40;45.00
16128;DHT22;8168;49.036;7.690;2022-07-29T14:56:00;28.50;44.50
16128;DHT22;8168;49.036;7.690;2022-07-29T14:58:30;28.50;43.60
16128;DHT22;8168;49.036;7.690;2022-07-29T15:01:01;28.50;42.00
16128;DHT22;8168;49.036;7.690;2022-07-29T15:03:32;28.40;42.50
16128;DHT22;8168;49.036;7.690;2022-07-29T15:06:03;28.50;45.10
16128;DHT22;8168;49.036;7.690;2022-07-29T15:08:33;28.50;44.20
16128;DHT22;8168;49.036;7.690;2022-07-29T15:11:04;28.60;45.20
16128;DHT22;8168;49.036;7.690;2022-07-29T15:13:35;28.60;45.60
16128;DHT22;8168;49.036;7.690;2022-07-29T15:16:05;28.50;44.90
16128;DHT22;8168;49.036;7.690;2022-07-29T15:18:36;28.50;46.10
16128;DHT22;8168;49.036;7.690;2022-07-29T15:21:08;28.50;46.10
16128;DHT22;8168;49.036;7.690;2022-07-29T15:23:39;28.40;45.70
16128;DHT22;8168;49.036;7.690;2022-07-29T15:26:09;28.40;45.00
16128;DHT22;8168;49.036;7.690;2022-07-29T15:28:40;28.40;46.10
16128;DHT22;8168;49.036;7.690;2022-07-29T15:31:11;28.40;46.10
16128;DHT22;8168;49.036;7.690;2022-07-29T15:33:41;28.40;46.50
16128;DHT22;8168;49.036;7.690;2022-07-29T15:36:12;28.50;46.60
16128;DHT22;8168;49.036;7.690;2022-07-29T15:38:43;28.50;46.60
16128;DHT22;8168;49.036;7.690;2022-07-29T15:41:15;28.50;48.00
16128;DHT22;8168;49.036;7.690;2022-07-29T15:43:46;28.50;46.10
16128;DHT22;8168;49.036;7.690;2022-07-29T15:46:18;28.50;46.70
16128;DHT22;8168;49.036;7.690;2022-07-29T15:49:08;28.50;46.90
16128;DHT22;8168;49.036;7.690;2022-07-29T15:51:39;28.60;47.10
16128;DHT22;8168;49.036;7.690;2022-07-29T15:54:10;28.60;47.40
16128;DHT22;8168;49.036;7.690;2022-07-29T15:56:40;28.50;48.20
16128;DHT22;8168;49.036;7.690;2022-07-29T15:59:11;28.50;48.70
16128;DHT22;8168;49.036;7.690;2022-07-29T16:01:42;28.60;48.60
16128;DHT22;8168;49.036;7.690;2022-07-29T16:04:13;28.70;48.30
16128;DHT22;8168;49.036;7.690;2022-07-29T16:06:44;28.70;47.90
16128;DHT22;8168;49.036;7.690;2022-07-29T16:09:16;28.70;48.00
16128;DHT22;8168;49.036;7.690;2022-07-29T16:11:47;28.70;47.70
16128;DHT22;8168;49.036;7.690;2022-07-29T16:14:22;28.60;47.70
16128;DHT22;8168;49.036;7.690;2022-07-29T16:16:53;28.70;47.50
16128;DHT22;8168;49.036;7.690;2022-07-29T16:19:24;28.70;47.60
16128;DHT22;8168;49.036;7.690;2022-07-29T16:21:55;28.60;48.70
16128;DHT22;8168;49.036;7.690;2022-07-29T16:24:25;28.60;48.00
16128;DHT22;8168;49.036;7.690;2022-07-29T16:26:59;28.50;49.20
16128;DHT22;8168;49.036;7.690;2022-07-29T16:29:29;28.50;47.80
16128;DHT22;8168;49.036;7.690;2022-07-29T16:32:00;28.50;48.60
16128;DHT22;8168;49.036;7.690;2022-07-29T16:34:31;28.50;48.70
16128;DHT22;8168;49.036;7.690;2022-07-29T16:37:02;28.50;48.90
16128;DHT22;8168;49.036;7.690;2022-07-29T16:39:32;28.50;48.30
16128;DHT22;8168;49.036;7.690;2022-07-29T16:42:03;28.50;48.20
16128;DHT22;8168;49.036;7.690;2022-07-29T16:44:33;28.40;48.80
16128;DHT22;8168;49.036;7.690;2022-07-29T16:47:04;28.30;49.10
16128;DHT22;8168;49.036;7.690;2022-07-29T16:49:35;28.30;49.40
16128;DHT22;8168;49.036;7.690;2022-07-29T16:52:05;28.30;49.70
16128;DHT22;8168;49.036;7.690;2022-07-29T16:54:37;28.20;49.40
16128;DHT22;8168;49.036;7.690;2022-07-29T16:57:07;28.20;49.30
16128;DHT22;8168;49.036;7.690;2022-07-29T16:59:38;28.20;49.00
16128;DHT22;8168;49.036;7.690;2022-07-29T17:02:09;28.20;48.80
16128;DHT22;8168;49.036;7.690;2022-07-29T17:04:41;28.20;49.20
16128;DHT22;8168;49.036;7.690;2022-07-29T17:07:11;28.30;49.40